createdAt,value
2018-08-06T00:00:37.179Z,21.77
2018-08-06T00:03:07.112Z,21.74
2018-08-06T00:05:37.911Z,21.73
2018-08-06T00:08:09.280Z,21.69
2018-08-06T00:10:39.849Z,21.67
2018-08-06T00:13:10.607Z,21.66
2018-08-06T00:15:41.919Z,21.67
2018-08-06T00:18:12.645Z,21.64
2018-08-06T00:20:43.962Z,21.63
2018-08-06T00:23:14.725Z,21.61
2018-08-06T00:25:45.516Z,21.55
2018-08-06T00:28:16.886Z,21.55
2018-08-06T00:30:47.573Z,21.53
2018-08-06T00:33:18.981Z,21.51
2018-08-06T00:35:49.705Z,21.49
2018-08-06T00:38:20.907Z,21.47
2018-08-06T00:40:51.588Z,21.47
2018-08-06T00:43:22.933Z,21.46
2018-08-06T00:45:53.621Z,21.43
2018-08-06T00:48:25.215Z,21.40
2018-08-06T00:50:55.794Z,21.38
2018-08-06T00:53:26.552Z,21.35
2018-08-06T00:55:57.876Z,21.32
2018-08-06T00:58:32.067Z,21.29
2018-08-06T01:01:01.820Z,21.26
2018-08-06T01:03:31.667Z,21.23
2018-08-06T01:06:01.577Z,21.16
2018-08-06T01:08:32.937Z,21.14
2018-08-06T01:11:03.733Z,21.08
2018-08-06T01:13:34.738Z,21.02
2018-08-06T01:16:05.769Z,20.99
2018-08-06T01:18:36.640Z,20.95
2018-08-06T01:21:07.956Z,20.90
2018-08-06T01:23:38.672Z,20.85
2018-08-06T01:26:10.053Z,20.80
2018-08-06T01:28:40.828Z,20.76
2018-08-06T01:31:11.683Z,20.74
2018-08-06T01:33:42.953Z,20.70
2018-08-06T01:36:13.684Z,20.68
2018-08-06T01:38:44.577Z,20.63
2018-08-06T01:41:15.871Z,20.59
2018-08-06T01:43:46.685Z,20.56
2018-08-06T01:46:18.018Z,20.50
2018-08-06T01:48:48.810Z,20.51
2018-08-06T01:51:19.629Z,20.50
2018-08-06T01:53:50.925Z,20.47
2018-08-06T01:56:21.621Z,20.45
2018-08-06T01:58:53.092Z,20.43
2018-08-06T02:01:23.845Z,20.40
2018-08-06T02:03:54.648Z,20.38
2018-08-06T02:06:26.018Z,20.33
2018-08-06T02:08:56.743Z,20.26
2018-08-06T02:11:26.546Z,20.19
2018-08-06T02:13:57.924Z,20.12
2018-08-06T02:16:29.544Z,20.09
2018-08-06T02:19:00.062Z,20.05
2018-08-06T02:21:30.840Z,20.02
2018-08-06T02:24:01.691Z,19.99
2018-08-06T02:26:32.524Z,19.96
2018-08-06T02:29:03.979Z,19.96
2018-08-06T02:31:34.852Z,19.94
2018-08-06T02:34:05.745Z,19.89
2018-08-06T02:36:36.967Z,19.84
2018-08-06T02:39:10.046Z,19.83
2018-08-06T02:41:40.199Z,19.79
2018-08-06T02:44:10.090Z,19.77
2018-08-06T02:46:40.042Z,19.73
2018-08-06T02:49:10.967Z,19.65
2018-08-06T02:51:41.725Z,19.63
2018-08-06T02:54:13.015Z,19.61
2018-08-06T02:56:43.754Z,19.58
2018-08-06T02:59:14.839Z,19.56
2018-08-06T03:01:45.648Z,19.52
2018-08-06T03:04:16.899Z,19.49
2018-08-06T03:06:48.020Z,19.46
2018-08-06T03:09:19.111Z,19.42
2018-08-06T03:11:49.816Z,19.39
2018-08-06T03:14:20.644Z,19.36
2018-08-06T03:16:51.960Z,19.32
2018-08-06T03:19:22.742Z,19.34
2018-08-06T03:21:53.584Z,19.33
2018-08-06T03:24:24.986Z,19.31
2018-08-06T03:26:55.720Z,19.27
2018-08-06T03:29:26.601Z,19.24
2018-08-06T03:31:57.348Z,19.21
2018-08-06T03:34:27.941Z,19.18
2018-08-06T03:36:58.756Z,19.15
2018-08-06T03:39:29.637Z,19.12
2018-08-06T03:42:00.925Z,19.06
2018-08-06T03:44:31.710Z,19.03
2018-08-06T03:47:02.904Z,19.00
2018-08-06T03:49:33.698Z,18.99
2018-08-06T03:52:04.929Z,18.96
2018-08-06T03:54:35.709Z,18.94
2018-08-06T03:57:06.582Z,18.93
2018-08-06T03:59:37.885Z,18.91
2018-08-06T04:02:08.568Z,18.90
2018-08-06T04:04:40.062Z,18.88
2018-08-06T04:07:10.858Z,18.88
2018-08-06T04:09:41.624Z,18.87
2018-08-06T04:12:12.985Z,18.85
2018-08-06T04:14:43.745Z,18.83
2018-08-06T04:17:14.568Z,18.81
2018-08-06T04:19:45.943Z,18.78
2018-08-06T04:22:16.980Z,18.76
2018-08-06T04:24:47.729Z,18.73
2018-08-06T04:27:18.944Z,18.68
2018-08-06T04:29:49.685Z,18.67
2018-08-06T04:32:20.934Z,18.65
2018-08-06T04:34:51.677Z,18.71
2018-08-06T04:37:22.916Z,18.72
2018-08-06T04:39:53.857Z,18.73
2018-08-06T04:42:24.624Z,18.75
2018-08-06T04:44:55.937Z,18.77
2018-08-06T04:47:26.708Z,18.82
2018-08-06T04:49:57.897Z,18.84
2018-08-06T04:52:28.672Z,18.87
2018-08-06T04:54:59.905Z,18.92
2018-08-06T04:57:31.157Z,18.95
2018-08-06T05:00:02.003Z,19.00
2018-08-06T05:02:32.779Z,19.04
2018-08-06T05:05:03.628Z,19.08
2018-08-06T05:07:40.430Z,19.11
2018-08-06T05:10:10.226Z,19.23
2018-08-06T05:12:40.706Z,19.35
2018-08-06T05:15:10.492Z,19.42
2018-08-06T05:17:40.736Z,19.41
2018-08-06T05:20:11.001Z,19.50
2018-08-06T05:22:40.853Z,19.61
2018-08-06T05:25:11.675Z,19.69
2018-08-06T05:27:43.115Z,19.70
2018-08-06T05:30:15.192Z,19.81
2018-08-06T05:32:45.201Z,19.89
2018-08-06T05:35:15.918Z,20.00
2018-08-06T05:37:46.767Z,20.07
2018-08-06T05:40:17.601Z,20.06
2018-08-06T05:42:49.064Z,20.09
2018-08-06T05:45:19.869Z,20.07
2018-08-06T05:47:50.765Z,20.05
2018-08-06T05:50:21.727Z,20.24
2018-08-06T05:52:52.972Z,20.48
2018-08-06T05:55:23.806Z,20.65
2018-08-06T05:57:54.891Z,20.79
2018-08-06T06:00:25.677Z,20.91
2018-08-06T06:02:57.340Z,21.00
2018-08-06T06:05:28.106Z,21.00
2018-08-06T06:07:59.257Z,20.96
2018-08-06T06:10:31.443Z,20.91
2018-08-06T06:13:01.660Z,20.88
2018-08-06T06:15:32.254Z,20.90
2018-08-06T06:18:02.398Z,20.96
2018-08-06T06:20:33.039Z,21.05
2018-08-06T06:23:04.056Z,21.14
2018-08-06T06:25:35.179Z,21.21
2018-08-06T06:28:06.196Z,21.27
2018-08-06T06:30:37.224Z,21.31
2018-08-06T06:33:08.085Z,21.33
2018-08-06T06:35:39.084Z,21.39
2018-08-06T06:38:10.191Z,21.58
2018-08-06T06:40:41.058Z,21.79
2018-08-06T06:43:12.299Z,21.77
2018-08-06T06:45:43.034Z,21.86
2018-08-06T06:48:14.128Z,21.89
2018-08-06T06:50:45.156Z,21.93
2018-08-06T06:53:16.288Z,22.01
2018-08-06T06:55:47.088Z,22.08
2018-08-06T06:58:18.181Z,22.19
2018-08-06T07:00:49.040Z,22.29
2018-08-06T07:03:20.042Z,22.40
2018-08-06T07:05:51.048Z,22.58
2018-08-06T07:08:22.084Z,22.79
2018-08-06T07:10:53.605Z,23.10
2018-08-06T07:13:24.115Z,23.13
2018-08-06T07:15:55.075Z,23.15
2018-08-06T07:18:26.003Z,23.22
2018-08-06T07:20:57.125Z,23.32
2018-08-06T07:23:28.159Z,23.39
2018-08-06T07:25:59.155Z,23.34
2018-08-06T07:28:30.126Z,23.37
2018-08-06T07:31:01.186Z,23.50
2018-08-06T07:33:32.244Z,23.78
2018-08-06T07:36:03.045Z,23.81
2018-08-06T07:38:34.108Z,23.84
2018-08-06T07:41:05.732Z,23.85
2018-08-06T07:43:35.704Z,23.92
2018-08-06T07:46:06.937Z,23.97
2018-08-06T07:48:37.653Z,24.09
2018-08-06T07:51:08.608Z,24.16
2018-08-06T07:53:39.856Z,24.26
2018-08-06T07:56:10.817Z,24.31
2018-08-06T07:58:41.735Z,24.28
2018-08-06T08:01:12.672Z,24.41
2018-08-06T08:03:43.993Z,24.44
2018-08-06T08:06:14.712Z,24.55
2018-08-06T08:08:45.657Z,24.61
2018-08-06T08:11:16.730Z,24.76
2018-08-06T08:13:55.623Z,24.92
2018-08-06T08:16:25.588Z,25.16
2018-08-06T08:18:55.510Z,25.35
2018-08-06T08:21:25.455Z,25.54
2018-08-06T08:23:55.503Z,25.74
2018-08-06T08:26:25.568Z,25.81
2018-08-06T08:28:55.413Z,25.70
2018-08-06T08:31:27.185Z,25.75
2018-08-06T08:33:57.639Z,25.84
2018-08-06T08:36:27.477Z,25.97
2018-08-06T08:38:58.079Z,26.03
2018-08-06T08:41:28.878Z,25.98
2018-08-06T08:43:59.667Z,25.92
2018-08-06T08:46:30.568Z,25.89
2018-08-06T08:49:07.868Z,26.08
2018-08-06T08:51:37.780Z,26.02
2018-08-06T08:54:07.905Z,25.93
2018-08-06T08:56:37.848Z,25.90
2018-08-06T08:59:08.111Z,25.90
2018-08-06T09:01:38.410Z,25.82
2018-08-06T09:04:08.298Z,25.98
2018-08-06T09:06:38.150Z,26.11
2018-08-06T09:09:11.789Z,26.05
2018-08-06T09:11:42.112Z,26.19
2018-08-06T09:14:12.036Z,26.38
2018-08-06T09:16:42.590Z,26.21
2018-08-06T09:19:12.489Z,26.26
2018-08-06T09:21:42.956Z,26.25
2018-08-06T09:24:13.686Z,26.24
2018-08-06T09:26:43.730Z,26.27
2018-08-06T09:29:14.681Z,26.16
2018-08-06T09:31:45.405Z,26.16
2018-08-06T09:34:16.065Z,26.44
2018-08-06T09:36:46.917Z,26.71
2018-08-06T09:39:17.844Z,26.77
2018-08-06T09:41:48.685Z,26.97
2018-08-06T09:44:19.731Z,26.99
2018-08-06T09:46:50.715Z,26.96
2018-08-06T10:12:10.613Z,26.96
2018-08-06T10:14:40.504Z,27.90
2018-08-06T10:17:10.700Z,27.81
2018-08-06T10:19:40.543Z,27.84
2018-08-06T10:22:10.597Z,27.88
2018-08-06T10:24:40.458Z,27.88
2018-08-06T10:27:10.511Z,27.99
2018-08-06T10:29:40.364Z,27.97
2018-08-06T10:32:10.251Z,28.03
2018-08-06T10:34:40.099Z,28.06
2018-08-06T10:37:10.041Z,28.33
2018-08-06T10:39:40.808Z,28.54
2018-08-06T10:42:11.579Z,28.42
2018-08-06T10:44:42.997Z,28.29
2018-08-06T10:47:13.788Z,28.21
2018-08-06T10:49:44.723Z,28.24
2018-08-06T10:52:15.722Z,28.27
2018-08-06T10:54:46.578Z,28.25
2018-08-06T10:57:17.927Z,28.28
2018-08-06T10:59:48.702Z,28.51
2018-08-06T11:02:19.752Z,28.55
2018-08-06T11:04:51.012Z,28.57
2018-08-06T11:07:22.028Z,28.31
2018-08-06T11:09:52.801Z,28.50
2018-08-06T11:12:24.184Z,28.95
2018-08-06T11:14:54.985Z,29.13
2018-08-06T11:17:25.783Z,29.55
2018-08-06T11:19:56.656Z,29.88
2018-08-06T11:22:27.992Z,29.80
2018-08-06T11:24:58.835Z,29.80
2018-08-06T11:27:29.683Z,29.52
2018-08-06T11:30:01.257Z,29.33
2018-08-06T11:32:31.938Z,29.38
2018-08-06T11:35:02.862Z,29.51
2018-08-06T11:37:33.657Z,29.08
2018-08-06T11:40:05.981Z,29.10
2018-08-06T11:42:36.306Z,29.09
2018-08-06T11:45:08.094Z,29.14
2018-08-06T11:47:37.982Z,29.37
2018-08-06T11:50:09.777Z,29.85
2018-08-06T11:52:39.813Z,30.18
2018-08-06T11:55:11.245Z,30.16
2018-08-06T11:57:42.061Z,29.93
2018-08-06T12:00:15.930Z,29.97
2018-08-06T12:02:46.711Z,30.41
2018-08-06T12:05:16.920Z,30.79
2018-08-06T12:07:46.957Z,30.99
2018-08-06T12:10:18.566Z,30.97
2018-08-06T12:12:49.509Z,30.90
2018-08-06T12:15:19.771Z,30.84
2018-08-06T12:17:49.901Z,30.82
2018-08-06T12:20:21.853Z,30.72
2018-08-06T12:22:53.499Z,30.84
2018-08-06T12:25:23.567Z,31.08
2018-08-06T12:27:53.985Z,31.26
2018-08-06T12:30:24.917Z,31.49
2018-08-06T12:32:55.978Z,31.89
2018-08-06T12:35:26.874Z,31.73
2018-08-06T12:37:58.045Z,31.43
2018-08-06T12:40:29.020Z,30.94
2018-08-06T12:43:00.036Z,30.77
2018-08-06T12:45:30.917Z,30.22
2018-08-06T12:48:01.687Z,30.36
2018-08-06T12:50:32.738Z,30.67
2018-08-06T12:53:04.344Z,30.91
2018-08-06T12:55:35.045Z,31.04
2018-08-06T12:58:06.116Z,31.16
2018-08-06T13:00:37.024Z,30.98
2018-08-06T13:03:08.248Z,30.81
2018-08-06T13:05:38.968Z,30.71
2018-08-06T13:08:09.722Z,30.79
2018-08-06T13:10:40.762Z,30.83
2018-08-06T13:13:11.749Z,31.00
2018-08-06T13:15:42.926Z,31.25
2018-08-06T13:18:14.010Z,31.41
2018-08-06T13:20:44.909Z,31.39
2018-08-06T13:23:15.753Z,31.59
2018-08-06T13:25:46.667Z,31.77
2018-08-06T13:28:18.002Z,31.67
2018-08-06T13:30:49.203Z,31.73
2018-08-06T13:33:19.969Z,31.90
2018-08-06T13:35:50.824Z,32.15
2018-08-06T13:38:21.556Z,32.15
2018-08-06T13:40:53.670Z,32.17
2018-08-06T13:43:23.578Z,32.42
2018-08-06T13:45:55.238Z,32.54
2018-08-06T13:48:26.030Z,32.68
2018-08-06T13:50:56.975Z,32.65
2018-08-06T13:53:28.077Z,32.51
2018-08-06T13:55:59.313Z,32.78
2018-08-06T13:58:30.012Z,32.89
2018-08-06T14:01:01.365Z,32.90
2018-08-06T14:03:31.902Z,32.94
2018-08-06T14:06:01.786Z,33.18
2018-08-06T14:08:32.661Z,33.43
2018-08-06T14:11:04.187Z,33.62
2018-08-06T14:13:34.918Z,33.77
2018-08-06T14:16:06.174Z,33.79
2018-08-06T14:18:36.984Z,33.79
2018-08-06T14:21:08.249Z,33.77
2018-08-06T14:23:39.016Z,33.72
2018-08-06T14:26:09.975Z,33.68
2018-08-06T14:28:40.723Z,33.47
2018-08-06T14:31:11.768Z,33.66
2018-08-06T14:33:42.702Z,33.76
2018-08-06T14:36:13.761Z,33.46
2018-08-06T14:38:44.778Z,33.34
2018-08-06T14:41:15.668Z,33.20
2018-08-06T14:43:45.658Z,33.56
2018-08-06T14:46:17.644Z,33.52
2018-08-06T14:48:47.649Z,33.66
2018-08-06T14:51:19.137Z,33.89
2018-08-06T14:53:49.938Z,34.00
2018-08-06T14:56:20.754Z,34.00
2018-08-06T14:58:52.332Z,34.01
2018-08-06T15:01:23.032Z,34.23
2018-08-06T15:03:53.834Z,34.19
2018-08-06T15:06:24.725Z,34.16
2018-08-06T15:08:55.642Z,34.13
2018-08-06T15:11:26.669Z,33.92
2018-08-06T15:13:57.664Z,34.02
2018-08-06T15:16:29.361Z,34.12
2018-08-06T15:19:00.120Z,34.22
2018-08-06T15:21:30.929Z,34.15
2018-08-06T15:24:01.782Z,34.17
2018-08-06T15:26:33.697Z,34.23
2018-08-06T15:29:03.995Z,34.24
2018-08-06T15:31:34.610Z,34.30
2018-08-06T15:34:04.725Z,34.28
2018-08-06T15:36:35.687Z,34.29
2018-08-06T15:39:11.237Z,34.30
2018-08-06T15:41:41.840Z,34.25
2018-08-06T15:44:11.634Z,33.88
2018-08-06T15:46:41.745Z,33.98
2018-08-06T15:49:11.717Z,34.04
2018-08-06T15:51:41.865Z,33.55
2018-08-06T15:54:12.117Z,33.62
2018-08-06T15:56:43.012Z,33.53
2018-08-06T15:59:18.913Z,33.55
2018-08-06T16:01:48.733Z,33.39
2018-08-06T16:04:18.578Z,33.33
2018-08-06T16:06:48.409Z,33.28
2018-08-06T16:09:18.447Z,33.22
2018-08-06T16:11:49.145Z,33.27
2018-08-06T16:14:20.984Z,33.40
2018-08-06T16:16:50.879Z,33.35
2018-08-06T16:19:21.705Z,33.42
2018-08-06T16:21:52.829Z,33.23
2018-08-06T16:24:23.725Z,33.27
2018-08-06T16:26:54.872Z,33.32
2018-08-06T16:29:25.665Z,33.37
2018-08-06T16:31:56.505Z,33.29
2018-08-06T16:34:27.293Z,33.24
2018-08-06T16:36:58.062Z,33.20
2018-08-06T16:39:28.926Z,33.08
2018-08-06T16:41:59.760Z,33.04
2018-08-06T16:44:30.865Z,33.00
2018-08-06T16:47:02.625Z,32.94
2018-08-06T16:49:33.040Z,32.92
2018-08-06T16:52:04.069Z,32.89
2018-08-06T16:54:34.856Z,32.88
2018-08-06T16:57:06.075Z,32.84
2018-08-06T16:59:37.056Z,32.77
2018-08-06T17:02:13.457Z,32.74
2018-08-06T17:04:43.441Z,32.66
2018-08-06T17:07:13.423Z,32.42
2018-08-06T17:09:43.562Z,32.38
2018-08-06T17:12:13.577Z,32.32
2018-08-06T17:14:43.600Z,32.22
2018-08-06T17:17:14.087Z,32.04
2018-08-06T17:19:44.903Z,31.83
2018-08-06T17:22:15.885Z,31.85
2018-08-06T17:24:46.866Z,31.78
2018-08-06T17:27:18.626Z,31.77
2018-08-06T17:29:49.035Z,31.74
2018-08-06T17:32:19.875Z,31.64
2018-08-06T17:34:50.696Z,31.56
2018-08-06T17:37:21.893Z,31.44
2018-08-06T17:39:52.711Z,31.34
2018-08-06T17:42:23.721Z,31.26
2018-08-06T17:44:54.852Z,31.07
2018-08-06T17:47:25.775Z,30.79
2018-08-06T17:49:56.577Z,30.81
2018-08-06T17:52:28.036Z,30.70
2018-08-06T17:54:58.962Z,30.63
2018-08-06T17:57:29.925Z,30.59
2018-08-06T18:00:00.821Z,30.44
2018-08-06T18:02:31.829Z,30.35
2018-08-06T18:05:02.623Z,30.27
2018-08-06T18:07:34.102Z,30.04
2018-08-06T18:10:05.832Z,30.02
2018-08-06T18:12:35.928Z,29.92
2018-08-06T18:15:07.249Z,29.84
2018-08-06T18:17:38.432Z,29.75
2018-08-06T18:20:14.453Z,29.63
2018-08-06T18:22:44.961Z,29.54
2018-08-06T18:25:16.618Z,29.45
2018-08-06T18:27:47.705Z,29.34
2018-08-06T18:30:19.320Z,29.26
2018-08-06T18:32:49.807Z,29.14
2018-08-06T18:35:21.274Z,29.03
2018-08-06T18:37:52.172Z,28.95
2018-08-06T18:40:23.016Z,28.86
2018-08-06T18:42:53.042Z,28.75
2018-08-06T18:45:23.297Z,28.65
2018-08-06T18:47:53.366Z,28.56
2018-08-06T18:50:24.126Z,28.49
2018-08-06T18:52:54.837Z,28.40
2018-08-06T18:55:25.161Z,28.29
2018-08-06T18:57:55.348Z,28.23
2018-08-06T19:00:26.423Z,28.18
2018-08-06T19:02:57.147Z,28.12
2018-08-06T19:05:27.112Z,28.01
2018-08-06T19:07:57.022Z,27.91
2018-08-06T19:10:27.893Z,27.80
2018-08-06T19:13:03.830Z,27.72
2018-08-06T19:15:33.622Z,27.58
2018-08-06T19:18:08.320Z,27.48
2018-08-06T19:20:38.736Z,27.40
2018-08-06T19:23:09.391Z,27.33
2018-08-06T19:25:39.316Z,27.18
2018-08-06T19:28:09.693Z,27.14
2018-08-06T19:30:44.377Z,27.08
2018-08-06T19:33:14.829Z,26.98
2018-08-06T19:35:44.871Z,26.94
2018-08-06T19:38:14.856Z,26.83
2018-08-06T19:40:44.638Z,26.69
2018-08-06T19:43:46.885Z,26.62
2018-08-06T19:46:17.771Z,26.47
2018-08-06T19:48:48.168Z,26.40
2018-08-06T19:51:18.089Z,26.31
2018-08-06T19:53:48.069Z,26.20
2018-08-06T19:56:17.954Z,26.09
2018-08-06T19:58:47.992Z,26.03
2018-08-06T20:01:17.981Z,25.96
2018-08-06T20:03:48.617Z,25.96
2018-08-06T20:06:18.510Z,25.85
2018-08-06T20:08:48.898Z,25.77
2018-08-06T20:11:18.976Z,25.67
2018-08-06T20:13:48.885Z,25.60
2018-08-06T20:16:19.143Z,25.55
2018-08-06T20:18:49.133Z,25.53
2018-08-06T20:21:18.982Z,25.47
2018-08-06T20:23:48.920Z,25.32
2018-08-06T20:26:18.940Z,25.28
2018-08-06T20:28:48.873Z,25.24
2018-08-06T20:31:19.348Z,25.10
2018-08-06T20:33:49.155Z,25.05
2018-08-06T20:36:19.052Z,24.90
2018-08-06T20:38:49.177Z,24.78
2018-08-06T20:41:19.060Z,24.66
2018-08-06T20:43:48.992Z,24.54
2018-08-06T20:46:19.439Z,24.42
2018-08-06T20:48:50.003Z,24.29
2018-08-06T20:51:19.948Z,24.27
2018-08-06T20:53:49.873Z,24.18
2018-08-06T20:56:19.836Z,24.09
2018-08-06T20:58:49.796Z,24.01
2018-08-06T21:01:19.688Z,23.92
2018-08-06T21:03:49.539Z,23.83
2018-08-06T21:06:19.817Z,23.77
2018-08-06T21:08:49.997Z,23.65
2018-08-06T21:11:20.205Z,23.61
2018-08-06T21:13:51.136Z,23.55
2018-08-06T21:16:21.414Z,23.48
2018-08-06T21:18:51.540Z,23.42
2018-08-06T21:21:21.618Z,23.39
2018-08-06T21:23:51.634Z,23.31
2018-08-06T21:26:25.817Z,23.25
2018-08-06T21:28:56.095Z,23.19
2018-08-06T21:31:26.329Z,23.11
2018-08-06T21:33:56.924Z,23.01
2018-08-06T21:36:26.965Z,22.98
2018-08-06T21:38:57.589Z,22.92
2018-08-06T21:41:28.392Z,22.90
2018-08-06T21:43:58.937Z,22.82
2018-08-06T21:46:32.706Z,22.78
2018-08-06T21:49:02.630Z,22.71
2018-08-06T21:51:32.728Z,22.65
2018-08-06T21:54:02.887Z,22.60
2018-08-06T21:56:33.840Z,22.56
2018-08-06T21:59:04.975Z,22.51
2018-08-06T22:01:35.926Z,22.44
2018-08-06T22:04:07.233Z,22.33
2018-08-06T22:06:37.836Z,22.28
2018-08-06T22:09:12.945Z,22.22
2018-08-06T22:11:42.826Z,22.16
2018-08-06T22:14:12.773Z,22.08
2018-08-06T22:16:42.613Z,22.03
2018-08-06T22:19:12.818Z,21.98
2018-08-06T22:21:43.659Z,21.92
2018-08-06T22:24:15.108Z,21.90
2018-08-06T22:26:45.940Z,21.84
2018-08-06T22:29:16.744Z,21.74
2018-08-06T22:31:47.540Z,21.74
2018-08-06T22:34:18.099Z,21.64
2018-08-06T22:36:48.864Z,21.62
2018-08-06T22:39:19.724Z,21.57
2018-08-06T22:41:51.001Z,21.52
2018-08-06T22:44:21.759Z,21.41
2018-08-06T22:46:53.264Z,21.39
2018-08-06T22:49:23.844Z,21.35
2018-08-06T22:51:54.676Z,21.30
2018-08-06T22:54:25.920Z,21.25
2018-08-06T22:56:56.821Z,21.16
2018-08-06T22:59:27.628Z,21.08
2018-08-06T23:01:58.975Z,21.01
2018-08-06T23:04:29.725Z,20.96
2018-08-06T23:07:00.701Z,20.92
2018-08-06T23:09:32.087Z,20.87
2018-08-06T23:12:02.913Z,20.86
2018-08-06T23:14:33.771Z,20.80
2018-08-06T23:17:05.202Z,20.76
2018-08-06T23:19:35.998Z,20.70
2018-08-06T23:22:06.953Z,20.67
2018-08-06T23:24:37.816Z,20.62
2018-08-06T23:27:08.629Z,20.57
2018-08-06T23:29:39.977Z,20.53
2018-08-06T23:32:10.507Z,20.48
2018-08-06T23:34:41.512Z,20.45
2018-08-06T23:37:12.143Z,20.38
2018-08-06T23:39:42.978Z,20.33
2018-08-06T23:42:14.144Z,20.25
2018-08-06T23:44:45.005Z,20.24
2018-08-06T23:47:15.827Z,20.16
2018-08-06T23:49:46.690Z,20.09
2018-08-06T23:52:18.203Z,20.05
2018-08-06T23:54:49.230Z,20.02
2018-08-06T23:57:19.976Z,19.97
2018-08-06T23:59:50.770Z,19.92
